sensor_id;sensor_type;location;lat;lon;timestamp;pressure;altitude;pressure_sealevel;temperature;humidity
46876;BME280;32866;50.160;14.768;2023-02-13T00:02:08;101489.88;;;3.80;100.00
46876;BME280;32866;50.160;14.768;2023-02-13T00:04:34;101467.41;;;3.67;100.00
46876;BME280;32866;50.160;14.768;2023-02-13T00:07:00;101514.38;;;4.08;100.00
46876;BME280;32866;50.160;14.768;2023-02-13T00:09:25;101472.34;;;3.90;100.00
46876;BME280;32866;50.160;14.768;2023-02-13T00:11:51;101508.94;;;4.21;100.00
46876;BME280;32866;50.160;14.768;2023-02-13T00:14:16;101470.09;;;3.92;100.00
46876;BME280;32866;50.160;14.768;2023-02-13T00:16:41;101473.16;;;3.90;100.00
46876;BME280;32866;50.160;14.768;2023-02-13T00:19:07;101503.66;;;4.00;100.00
46876;BME280;32866;50.160;14.768;2023-02-13T00:21:48;101504.44;;;4.00;100.00
46876;BME280;32866;50.160;14.768;2023-02-13T00:24:13;101481.16;;;3.87;100.00
46876;BME280;32866;50.160;14.768;2023-02-13T00:26:39;101471.69;;;3.68;100.00
46876;BME280;32866;50.160;14.768;2023-02-13T00:29:05;101502.66;;;3.80;100.00
46876;BME280;32866;50.160;14.768;2023-02-13T00:31:30;101505.84;;;3.57;100.00
46876;BME280;32866;50.160;14.768;2023-02-13T00:33:56;101509.75;;;3.35;100.00
46876;BME280;32866;50.160;14.768;2023-02-13T00:36:22;101516.66;;;3.45;100.00
46876;BME280;32866;50.160;14.768;2023-02-13T00:38:48;101469.63;;;3.04;100.00
46876;BME280;32866;50.160;14.768;2023-02-13T00:41:14;101502.22;;;3.41;100.00
46876;BME280;32866;50.160;14.768;2023-02-13T00:43:41;101507.63;;;3.41;100.00
46876;BME280;32866;50.160;14.768;2023-02-13T00:46:07;101500.06;;;3.46;100.00
46876;BME280;32866;50.160;14.768;2023-02-13T00:48:33;101501.53;;;3.56;100.00
46876;BME280;32866;50.160;14.768;2023-02-13T00:50:59;101504.34;;;3.60;100.00
46876;BME280;32866;50.160;14.768;2023-02-13T00:53:25;101497.00;;;3.60;100.00
46876;BME280;32866;50.160;14.768;2023-02-13T00:55:51;101500.53;;;3.61;100.00
46876;BME280;32866;50.160;14.768;2023-02-13T00:58:17;101498.59;;;3.61;100.00
46876;BME280;32866;50.160;14.768;2023-02-13T01:00:43;101455.66;;;3.26;100.00
46876;BME280;32866;50.160;14.768;2023-02-13T01:03:10;101465.13;;;3.82;100.00
46876;BME280;32866;50.160;14.768;2023-02-13T01:05:36;101498.00;;;4.05;100.00
46876;BME280;32866;50.160;14.768;2023-02-13T01:08:01;101450.72;;;3.65;100.00
46876;BME280;32866;50.160;14.768;2023-02-13T01:10:27;101497.00;;;3.85;100.00
46876;BME280;32866;50.160;14.768;2023-02-13T01:12:52;101501.44;;;3.77;100.00
46876;BME280;32866;50.160;14.768;2023-02-13T01:15:19;101481.88;;;3.59;100.00
46876;BME280;32866;50.160;14.768;2023-02-13T01:17:44;101505.34;;;3.55;100.00
46876;BME280;32866;50.160;14.768;2023-02-13T01:20:11;101500.63;;;3.77;100.00
46876;BME280;32866;50.160;14.768;2023-02-13T01:22:37;101503.34;;;3.64;100.00
46876;BME280;32866;50.160;14.768;2023-02-13T01:25:03;101495.88;;;3.49;100.00
46876;BME280;32866;50.160;14.768;2023-02-13T01:27:28;101492.94;;;3.79;100.00
46876;BME280;32866;50.160;14.768;2023-02-13T01:29:54;101457.47;;;3.59;100.00
46876;BME280;32866;50.160;14.768;2023-02-13T01:32:19;101493.16;;;3.61;100.00
46876;BME280;32866;50.160;14.768;2023-02-13T01:34:45;101464.94;;;3.25;100.00
46876;BME280;32866;50.160;14.768;2023-02-13T01:37:10;101487.06;;;3.64;100.00
46876;BME280;32866;50.160;14.768;2023-02-13T01:39:36;101471.91;;;3.26;100.00
46876;BME280;32866;50.160;14.768;2023-02-13T01:42:01;101462.63;;;3.03;100.00
46876;BME280;32866;50.160;14.768;2023-02-13T01:44:50;101485.47;;;3.14;100.00
46876;BME280;32866;50.160;14.768;2023-02-13T01:47:46;101491.31;;;3.04;100.00
46876;BME280;32866;50.160;14.768;2023-02-13T01:50:30;101482.03;;;2.92;100.00
46876;BME280;32866;50.160;14.768;2023-02-13T01:53:06;101487.53;;;2.84;100.00
46876;BME280;32866;50.160;14.768;2023-02-13T01:55:34;101485.47;;;2.81;100.00
46876;BME280;32866;50.160;14.768;2023-02-13T01:58:06;101496.31;;;2.81;100.00
46876;BME280;32866;50.160;14.768;2023-02-13T02:00:32;101490.34;;;2.75;100.00
46876;BME280;32866;50.160;14.768;2023-02-13T02:03:03;101503.47;;;2.64;100.00
46876;BME280;32866;50.160;14.768;2023-02-13T02:05:31;101492.69;;;2.76;100.00
46876;BME280;32866;50.160;14.768;2023-02-13T02:07:59;101485.03;;;2.78;100.00
46876;BME280;32866;50.160;14.768;2023-02-13T02:10:26;101484.63;;;2.68;100.00
46876;BME280;32866;50.160;14.768;2023-02-13T02:13:17;101448.75;;;2.58;100.00
46876;BME280;32866;50.160;14.768;2023-02-13T02:15:44;101461.16;;;2.59;100.00
46876;BME280;32866;50.160;14.768;2023-02-13T02:18:15;101474.56;;;2.89;100.00
46876;BME280;32866;50.160;14.768;2023-02-13T02:21:02;101477.53;;;3.09;100.00
46876;BME280;32866;50.160;14.768;2023-02-13T02:24:02;101473.69;;;3.10;100.00
46876;BME280;32866;50.160;14.768;2023-02-13T02:27:22;101465.13;;;3.08;100.00
46876;BME280;32866;50.160;14.768;2023-02-13T02:42:46;101445.16;;;2.12;100.00
46876;BME280;32866;50.160;14.768;2023-02-13T02:45:25;101465.53;;;2.31;100.00
46876;BME280;32866;50.160;14.768;2023-02-13T02:48:04;101464.03;;;2.42;100.00
46876;BME280;32866;50.160;14.768;2023-02-13T02:53:41;101426.63;;;2.02;100.00
46876;BME280;32866;50.160;14.768;2023-02-13T02:56:30;101448.91;;;2.41;100.00
46876;BME280;32866;50.160;14.768;2023-02-13T02:59:11;101446.19;;;2.74;100.00
46876;BME280;32866;50.160;14.768;2023-02-13T03:01:57;101448.56;;;2.76;100.00
46876;BME280;32866;50.160;14.768;2023-02-13T03:04:45;101441.16;;;2.85;100.00
46876;BME280;32866;50.160;14.768;2023-02-13T03:07:31;101448.56;;;2.76;100.00
46876;BME280;32866;50.160;14.768;2023-02-13T03:10:02;101441.59;;;2.75;100.00
46876;BME280;32866;50.160;14.768;2023-02-13T03:12:53;101447.00;;;2.75;100.00
46876;BME280;32866;50.160;14.768;2023-02-13T03:15:38;101454.81;;;2.55;100.00
46876;BME280;32866;50.160;14.768;2023-02-13T03:18:24;101452.16;;;2.68;100.00
46876;BME280;32866;50.160;14.768;2023-02-13T03:21:16;101433.19;;;2.34;100.00
46876;BME280;32866;50.160;14.768;2023-02-13T03:24:10;101434.59;;;2.19;100.00
46876;BME280;32866;50.160;14.768;2023-02-13T03:32:30;101455.38;;;2.28;100.00
46876;BME280;32866;50.160;14.768;2023-02-13T03:35:19;101459.09;;;2.23;100.00
46876;BME280;32866;50.160;14.768;2023-02-13T03:38:13;101459.59;;;2.58;100.00
46876;BME280;32866;50.160;14.768;2023-02-13T03:40:49;101443.59;;;2.45;100.00
46876;BME280;32866;50.160;14.768;2023-02-13T03:46:32;101440.72;;;2.29;100.00
46876;BME280;32866;50.160;14.768;2023-02-13T03:49:01;101473.59;;;2.39;100.00
46876;BME280;32866;50.160;14.768;2023-02-13T03:51:59;101465.09;;;2.50;100.00
46876;BME280;32866;50.160;14.768;2023-02-13T03:54:33;101469.88;;;2.44;100.00
46876;BME280;32866;50.160;14.768;2023-02-13T03:57:21;101439.75;;;2.12;100.00
46876;BME280;32866;50.160;14.768;2023-02-13T04:00:10;101482.22;;;2.33;100.00
46876;BME280;32866;50.160;14.768;2023-02-13T04:02:43;101449.66;;;2.08;100.00
46876;BME280;32866;50.160;14.768;2023-02-13T04:05:19;101439.28;;;2.10;100.00
46876;BME280;32866;50.160;14.768;2023-02-13T04:07:46;101474.44;;;2.52;100.00
46876;BME280;32866;50.160;14.768;2023-02-13T04:10:14;101476.09;;;2.45;100.00
46876;BME280;32866;50.160;14.768;2023-02-13T04:16:02;101471.22;;;2.38;100.00
46876;BME280;32866;50.160;14.768;2023-02-13T04:18:31;101473.47;;;2.36;100.00
46876;BME280;32866;50.160;14.768;2023-02-13T04:21:02;101465.66;;;2.34;100.00
46876;BME280;32866;50.160;14.768;2023-02-13T04:23:28;101448.13;;;2.19;100.00
46876;BME280;32866;50.160;14.768;2023-02-13T04:25:54;101467.53;;;2.21;100.00
46876;BME280;32866;50.160;14.768;2023-02-13T04:28:21;101469.72;;;2.28;100.00
46876;BME280;32866;50.160;14.768;2023-02-13T04:30:46;101442.31;;;2.09;100.00
46876;BME280;32866;50.160;14.768;2023-02-13T04:33:12;101468.69;;;2.54;100.00
46876;BME280;32866;50.160;14.768;2023-02-13T04:35:37;101474.44;;;2.52;100.00
46876;BME280;32866;50.160;14.768;2023-02-13T04:38:03;101458.63;;;2.75;100.00
46876;BME280;32866;50.160;14.768;2023-02-13T04:40:28;101455.56;;;2.77;100.00
46876;BME280;32866;50.160;14.768;2023-02-13T04:42:54;101436.72;;;2.35;100.00
46876;BME280;32866;50.160;14.768;2023-02-13T04:45:19;101469.53;;;2.67;100.00
46876;BME280;32866;50.160;14.768;2023-02-13T04:47:49;101453.19;;;2.75;100.00
46876;BME280;32866;50.160;14.768;2023-02-13T04:50:15;101437.59;;;2.60;100.00
46876;BME280;32866;50.160;14.768;2023-02-13T04:52:41;101465.47;;;2.73;100.00
46876;BME280;32866;50.160;14.768;2023-02-13T04:55:06;101452.53;;;2.78;100.00
46876;BME280;32866;50.160;14.768;2023-02-13T04:57:32;101438.25;;;2.57;100.00
46876;BME280;32866;50.160;14.768;2023-02-13T04:59:57;101442.16;;;2.47;100.00
46876;BME280;32866;50.160;14.768;2023-02-13T05:02:22;101468.53;;;2.71;100.00
46876;BME280;32866;50.160;14.768;2023-02-13T05:04:48;101472.72;;;2.81;100.00
46876;BME280;32866;50.160;14.768;2023-02-13T05:07:13;101442.38;;;2.42;100.00
46876;BME280;32866;50.160;14.768;2023-02-13T05:09:38;101474.34;;;2.61;100.00
46876;BME280;32866;50.160;14.768;2023-02-13T05:12:04;101471.66;;;2.61;100.00
46876;BME280;32866;50.160;14.768;2023-02-13T05:14:29;101434.22;;;2.63;100.00
46876;BME280;32866;50.160;14.768;2023-02-13T05:16:55;101483.44;;;2.77;100.00
46876;BME280;32866;50.160;14.768;2023-02-13T05:19:20;101472.06;;;2.51;100.00
46876;BME280;32866;50.160;14.768;2023-02-13T05:21:46;101472.28;;;2.79;100.00
46876;BME280;32866;50.160;14.768;2023-02-13T05:24:30;101462.28;;;2.58;100.00
46876;BME280;32866;50.160;14.768;2023-02-13T05:26:55;101447.63;;;2.59;100.00
46876;BME280;32866;50.160;14.768;2023-02-13T05:29:21;101474.84;;;2.63;100.00
46876;BME280;32866;50.160;14.768;2023-02-13T05:31:51;101470.50;;;2.50;100.00
46876;BME280;32866;50.160;14.768;2023-02-13T05:34:18;101467.75;;;2.71;100.00
46876;BME280;32866;50.160;14.768;2023-02-13T05:36:44;101440.19;;;2.56;100.00
46876;BME280;32866;50.160;14.768;2023-02-13T05:39:09;101443.91;;;2.64;100.00
46876;BME280;32866;50.160;14.768;2023-02-13T05:41:35;101465.66;;;2.89;100.00
46876;BME280;32866;50.160;14.768;2023-02-13T05:44:00;101423.41;;;2.63;100.00
46876;BME280;32866;50.160;14.768;2023-02-13T05:46:25;101467.56;;;2.88;100.00
46876;BME280;32866;50.160;14.768;2023-02-13T05:48:51;101469.34;;;2.72;100.00
46876;BME280;32866;50.160;14.768;2023-02-13T05:51:18;101458.06;;;2.49;100.00
46876;BME280;32866;50.160;14.768;2023-02-13T05:53:43;101477.66;;;2.67;100.00
46876;BME280;32866;50.160;14.768;2023-02-13T05:56:08;101448.69;;;2.46;100.00
46876;BME280;32866;50.160;14.768;2023-02-13T05:58:34;101472.25;;;2.67;100.00
46876;BME280;32866;50.160;14.768;2023-02-13T06:00:59;101476.69;;;2.50;100.00
46876;BME280;32866;50.160;14.768;2023-02-13T06:03:26;101475.16;;;2.62;100.00
46876;BME280;32866;50.160;14.768;2023-02-13T06:05:53;101495.38;;;2.43;100.00
46876;BME280;32866;50.160;14.768;2023-02-13T06:08:18;101486.66;;;2.37;100.00
46876;BME280;32866;50.160;14.768;2023-02-13T06:13:20;101494.44;;;2.39;100.00
46876;BME280;32866;50.160;14.768;2023-02-13T06:15:45;101490.16;;;2.17;100.00
46876;BME280;32866;50.160;14.768;2023-02-13T06:18:22;101492.88;;;2.17;100.00
46876;BME280;32866;50.160;14.768;2023-02-13T06:20:48;101464.63;;;1.84;100.00
46876;BME280;32866;50.160;14.768;2023-02-13T06:23:13;101493.84;;;1.91;100.00
46876;BME280;32866;50.160;14.768;2023-02-13T06:25:39;101492.84;;;1.96;100.00
46876;BME280;32866;50.160;14.768;2023-02-13T06:28:04;101489.69;;;1.94;100.00
46876;BME280;32866;50.160;14.768;2023-02-13T06:30:30;101463.78;;;1.63;100.00
46876;BME280;32866;50.160;14.768;2023-02-13T06:32:56;101479.75;;;1.77;100.00
46876;BME280;32866;50.160;14.768;2023-02-13T06:35:21;101497.59;;;1.99;100.00
46876;BME280;32866;50.160;14.768;2023-02-13T06:37:47;101493.94;;;2.25;100.00
46876;BME280;32866;50.160;14.768;2023-02-13T06:40:14;101443.41;;;2.16;100.00
46876;BME280;32866;50.160;14.768;2023-02-13T06:42:41;101501.91;;;2.42;100.00
46876;BME280;32866;50.160;14.768;2023-02-13T06:45:07;101478.56;;;2.16;100.00
46876;BME280;32866;50.160;14.768;2023-02-13T06:47:32;101502.63;;;2.30;100.00
46876;BME280;32866;50.160;14.768;2023-02-13T06:49:58;101461.94;;;2.27;100.00
46876;BME280;32866;50.160;14.768;2023-02-13T06:52:23;101475.97;;;2.41;100.00
46876;BME280;32866;50.160;14.768;2023-02-13T06:54:48;101508.44;;;2.62;100.00
46876;BME280;32866;50.160;14.768;2023-02-13T06:57:14;101504.22;;;2.52;100.00
46876;BME280;32866;50.160;14.768;2023-02-13T06:59:40;101506.47;;;2.50;100.00
46876;BME280;32866;50.160;14.768;2023-02-13T07:02:05;101501.47;;;2.40;100.00
46876;BME280;32866;50.160;14.768;2023-02-13T07:04:45;101510.44;;;2.32;100.00
46876;BME280;32866;50.160;14.768;2023-02-13T07:07:11;101504.94;;;2.19;100.00
46876;BME280;32866;50.160;14.768;2023-02-13T07:09:36;101487.84;;;2.07;100.00
46876;BME280;32866;50.160;14.768;2023-02-13T07:12:03;101511.09;;;2.50;100.00
46876;BME280;32866;50.160;14.768;2023-02-13T07:14:28;101514.63;;;2.63;100.00
46876;BME280;32866;50.160;14.768;2023-02-13T07:16:53;101510.75;;;2.51;100.00
46876;BME280;32866;50.160;14.768;2023-02-13T07:19:19;101487.78;;;2.15;100.00
46876;BME280;32866;50.160;14.768;2023-02-13T07:21:44;101517.38;;;2.41;100.00
46876;BME280;32866;50.160;14.768;2023-02-13T07:24:10;101497.03;;;2.35;100.00
46876;BME280;32866;50.160;14.768;2023-02-13T07:26:35;101483.88;;;2.46;100.00
46876;BME280;32866;50.160;14.768;2023-02-13T07:29:01;101516.22;;;2.64;100.00
46876;BME280;32866;50.160;14.768;2023-02-13T07:31:33;101513.44;;;2.51;100.00
46876;BME280;32866;50.160;14.768;2023-02-13T07:33:59;101495.09;;;2.36;100.00
46876;BME280;32866;50.160;14.768;2023-02-13T07:36:26;101528.78;;;2.47;100.00
46876;BME280;32866;50.160;14.768;2023-02-13T07:38:51;101533.91;;;2.82;100.00
46876;BME280;32866;50.160;14.768;2023-02-13T07:41:16;101491.41;;;2.62;100.00
46876;BME280;32866;50.160;14.768;2023-02-13T07:43:42;101487.06;;;2.48;100.00
46876;BME280;32866;50.160;14.768;2023-02-13T07:46:08;101532.63;;;2.79;100.00
46876;BME280;32866;50.160;14.768;2023-02-13T07:48:34;101522.13;;;2.78;100.00
46876;BME280;32866;50.160;14.768;2023-02-13T07:51:00;101490.34;;;2.75;100.00
46876;BME280;32866;50.160;14.768;2023-02-13T07:53:26;101505.06;;;2.99;100.00
46876;BME280;32866;50.160;14.768;2023-02-13T07:55:51;101513.44;;;3.18;100.00
46876;BME280;32866;50.160;14.768;2023-02-13T07:58:17;101518.88;;;3.18;100.00
46876;BME280;32866;50.160;14.768;2023-02-13T08:00:42;101489.84;;;3.06;100.00
46876;BME280;32866;50.160;14.768;2023-02-13T08:03:08;101517.53;;;3.37;100.00
46876;BME280;32866;50.160;14.768;2023-02-13T08:05:34;101476.50;;;3.01;100.00
46876;BME280;32866;50.160;14.768;2023-02-13T08:08:00;101516.22;;;3.55;100.00
46876;BME280;32866;50.160;14.768;2023-02-13T08:10:25;101512.03;;;3.58;100.00
46876;BME280;32866;50.160;14.768;2023-02-13T08:13:10;101495.63;;;3.42;100.00
46876;BME280;32866;50.160;14.768;2023-02-13T08:15:37;101514.63;;;3.54;100.00
46876;BME280;32866;50.160;14.768;2023-02-13T08:18:02;101511.47;;;3.77;100.00
46876;BME280;32866;50.160;14.768;2023-02-13T08:20:28;101510.78;;;3.80;100.00
46876;BME280;32866;50.160;14.768;2023-02-13T08:22:53;101502.88;;;3.75;100.00
46876;BME280;32866;50.160;14.768;2023-02-13T08:25:26;101511.66;;;4.08;100.00
46876;BME280;32866;50.160;14.768;2023-02-13T08:27:51;101521.72;;;4.08;100.00
46876;BME280;32866;50.160;14.768;2023-02-13T08:30:16;101513.41;;;4.41;100.00
46876;BME280;32866;50.160;14.768;2023-02-13T08:32:42;101511.47;;;4.42;100.00
46876;BME280;32866;50.160;14.768;2023-02-13T08:35:07;101512.28;;;4.42;100.00
46876;BME280;32866;50.160;14.768;2023-02-13T08:37:32;101508.72;;;4.54;100.00
46876;BME280;32866;50.160;14.768;2023-02-13T08:39:58;101492.06;;;4.56;100.00
46876;BME280;32866;50.160;14.768;2023-02-13T08:42:23;101508.66;;;4.95;100.00
46876;BME280;32866;50.160;14.768;2023-02-13T08:44:48;101508.75;;;4.98;100.00
46876;BME280;32866;50.160;14.768;2023-02-13T08:47:14;101519.41;;;5.19;100.00
46876;BME280;32866;50.160;14.768;2023-02-13T08:49:39;101481.75;;;4.90;100.00
46876;BME280;32866;50.160;14.768;2023-02-13T08:52:05;101485.41;;;4.81;100.00
46876;BME280;32866;50.160;14.768;2023-02-13T08:54:30;101506.94;;;5.18;100.00
46876;BME280;32866;50.160;14.768;2023-02-13T08:56:57;101503.91;;;4.92;100.00
46876;BME280;32866;50.160;14.768;2023-02-13T08:59:23;101527.00;;;5.14;100.00
46876;BME280;32866;50.160;14.768;2023-02-13T09:01:48;101488.66;;;4.87;100.00
46876;BME280;32866;50.160;14.768;2023-02-13T09:04:13;101528.59;;;5.15;100.00
46876;BME280;32866;50.160;14.768;2023-02-13T09:06:43;101527.34;;;5.12;100.00
46876;BME280;32866;50.160;14.768;2023-02-13T09:09:08;101525.97;;;5.34;100.00
46876;BME280;32866;50.160;14.768;2023-02-13T09:11:34;101495.53;;;5.13;100.00
46876;BME280;32866;50.160;14.768;2023-02-13T09:13:59;101526.25;;;5.45;100.00
46876;BME280;32866;50.160;14.768;2023-02-13T09:16:25;101524.47;;;5.69;100.00
46876;BME280;32866;50.160;14.768;2023-02-13T09:18:51;101523.59;;;5.65;100.00
46876;BME280;32866;50.160;14.768;2023-02-13T09:21:18;101534.97;;;5.86;100.00
46876;BME280;32866;50.160;14.768;2023-02-13T09:23:43;101532.44;;;5.93;100.00
46876;BME280;32866;50.160;14.768;2023-02-13T09:26:12;101531.28;;;5.94;100.00
46876;BME280;32866;50.160;14.768;2023-02-13T09:28:39;101528.97;;;5.77;100.00
46876;BME280;32866;50.160;14.768;2023-02-13T09:31:12;101533.63;;;5.76;100.00
46876;BME280;32866;50.160;14.768;2023-02-13T09:33:39;101526.94;;;5.74;100.00
46876;BME280;32866;50.160;14.768;2023-02-13T09:36:10;101532.78;;;5.92;100.00
46876;BME280;32866;50.160;14.768;2023-02-13T09:38:35;101509.13;;;5.76;100.00
46876;BME280;32866;50.160;14.768;2023-02-13T09:43:51;101530.50;;;5.94;100.00
46876;BME280;32866;50.160;14.768;2023-02-13T09:46:21;101532.97;;;5.99;100.00
46876;BME280;32866;50.160;14.768;2023-02-13T09:48:53;101533.34;;;5.82;100.00
46876;BME280;32866;50.160;14.768;2023-02-13T09:51:21;101538.16;;;6.04;100.00
46876;BME280;32866;50.160;14.768;2023-02-13T09:53:56;101539.47;;;6.10;100.00
46876;BME280;32866;50.160;14.768;2023-02-13T09:56:36;101549.09;;;6.24;100.00
46876;BME280;32866;50.160;14.768;2023-02-13T10:01:53;101544.47;;;6.44;100.00
46876;BME280;32866;50.160;14.768;2023-02-13T10:12:29;101543.56;;;6.98;100.00
46876;BME280;32866;50.160;14.768;2023-02-13T10:17:44;101510.47;;;6.77;100.00
46876;BME280;32866;50.160;14.768;2023-02-13T10:20:28;101546.47;;;6.86;100.00
46876;BME280;32866;50.160;14.768;2023-02-13T10:23:08;101528.81;;;6.99;100.00
46876;BME280;32866;50.160;14.768;2023-02-13T10:25:57;101538.88;;;7.41;100.00
46876;BME280;32866;50.160;14.768;2023-02-13T10:28:31;101542.66;;;7.33;100.00
46876;BME280;32866;50.160;14.768;2023-02-13T10:31:24;101539.66;;;7.42;100.00
46876;BME280;32866;50.160;14.768;2023-02-13T10:33:52;101513.00;;;7.32;100.00
46876;BME280;32866;50.160;14.768;2023-02-13T10:36:29;101539.72;;;7.69;100.00
46876;BME280;32866;50.160;14.768;2023-02-13T10:38:59;101534.41;;;7.53;100.00
46876;BME280;32866;50.160;14.768;2023-02-13T10:55:12;101522.97;;;8.24;100.00
46876;BME280;32866;50.160;14.768;2023-02-13T11:00:45;101518.97;;;8.17;100.00
46876;BME280;32866;50.160;14.768;2023-02-13T11:03:22;101487.25;;;8.09;100.00
46876;BME280;32866;50.160;14.768;2023-02-13T11:05:48;101521.50;;;8.30;100.00
46876;BME280;32866;50.160;14.768;2023-02-13T11:08:21;101513.78;;;8.39;100.00
46876;BME280;32866;50.160;14.768;2023-02-13T11:10:46;101507.13;;;8.36;100.00
46876;BME280;32866;50.160;14.768;2023-02-13T11:13:21;101511.63;;;8.52;100.00
46876;BME280;32866;50.160;14.768;2023-02-13T11:18:25;101511.75;;;8.63;100.00
46876;BME280;32866;50.160;14.768;2023-02-13T11:21:10;101518.88;;;8.71;100.00
46876;BME280;32866;50.160;14.768;2023-02-13T11:23:56;101484.94;;;8.42;100.00
46876;BME280;32866;50.160;14.768;2023-02-13T11:26:30;101521.72;;;8.78;100.00
46876;BME280;32866;50.160;14.768;2023-02-13T11:28:59;101492.16;;;8.53;100.00
46876;BME280;32866;50.160;14.768;2023-02-13T11:31:30;101510.84;;;8.85;100.00
46876;BME280;32866;50.160;14.768;2023-02-13T11:33:57;101507.88;;;8.64;100.00
46876;BME280;32866;50.160;14.768;2023-02-13T11:39:06;101516.66;;;8.80;100.00
46876;BME280;32866;50.160;14.768;2023-02-13T11:41:43;101510.69;;;8.71;100.00
46876;BME280;32866;50.160;14.768;2023-02-13T11:44:25;101509.81;;;9.01;100.00
46876;BME280;32866;50.160;14.768;2023-02-13T11:46:53;101501.22;;;8.99;100.00
46876;BME280;32866;50.160;14.768;2023-02-13T11:49:21;101502.03;;;9.03;100.00
46876;BME280;32866;50.160;14.768;2023-02-13T11:51:49;101496.28;;;9.15;100.00
46876;BME280;32866;50.160;14.768;2023-02-13T11:54:43;101505.16;;;9.05;100.00
46876;BME280;32866;50.160;14.768;2023-02-13T11:57:19;101506.03;;;9.61;100.00
46876;BME280;32866;50.160;14.768;2023-02-13T11:59:46;101491.47;;;9.46;100.00
46876;BME280;32866;50.160;14.768;2023-02-13T12:02:21;101505.63;;;9.55;100.00
46876;BME280;32866;50.160;14.768;2023-02-13T12:04:49;101494.41;;;9.78;100.00
46876;BME280;32866;50.160;14.768;2023-02-13T12:09:50;101491.38;;;9.87;100.00
46876;BME280;32866;50.160;14.768;2023-02-13T12:12:24;101479.53;;;9.69;100.00
46876;BME280;32866;50.160;14.768;2023-02-13T12:14:51;101450.44;;;9.50;100.00
46876;BME280;32866;50.160;14.768;2023-02-13T12:17:21;101476.84;;;9.83;100.00
46876;BME280;32866;50.160;14.768;2023-02-13T12:19:48;101471.75;;;9.81;100.00
46876;BME280;32866;50.160;14.768;2023-02-13T12:22:31;101468.84;;;9.56;100.00
46876;BME280;32866;50.160;14.768;2023-02-13T12:38:40;101451.81;;;9.81;100.00
46876;BME280;32866;50.160;14.768;2023-02-13T12:41:27;101441.38;;;10.05;100.00
46876;BME280;32866;50.160;14.768;2023-02-13T12:47:36;101438.94;;;9.89;100.00
46876;BME280;32866;50.160;14.768;2023-02-13T12:52:48;101428.84;;;10.03;100.00
46876;BME280;32866;50.160;14.768;2023-02-13T13:01:49;101406.66;;;10.34;100.00
46876;BME280;32866;50.160;14.768;2023-02-13T13:07:22;101427.50;;;10.67;100.00
46876;BME280;32866;50.160;14.768;2023-02-13T13:13:20;101425.56;;;10.86;100.00
46876;BME280;32866;50.160;14.768;2023-02-13T13:21:10;101420.84;;;10.65;100.00
46876;BME280;32866;50.160;14.768;2023-02-13T13:29:00;101416.38;;;10.20;100.00
46876;BME280;32866;50.160;14.768;2023-02-13T13:31:29;101409.38;;;10.30;100.00
46876;BME280;32866;50.160;14.768;2023-02-13T13:33:59;101420.78;;;10.47;100.00
46876;BME280;32866;50.160;14.768;2023-02-13T13:42:11;101405.16;;;10.62;100.00
46876;BME280;32866;50.160;14.768;2023-02-13T13:45:02;101409.88;;;10.72;100.00
46876;BME280;32866;50.160;14.768;2023-02-13T13:50:22;101409.72;;;10.11;100.00
46876;BME280;32866;50.160;14.768;2023-02-13T13:58:21;101411.31;;;10.26;100.00
46876;BME280;32866;50.160;14.768;2023-02-13T14:01:16;101412.84;;;10.13;100.00
46876;BME280;32866;50.160;14.768;2023-02-13T14:03:44;101411.59;;;9.96;100.00
46876;BME280;32866;50.160;14.768;2023-02-13T14:06:15;101413.13;;;9.93;100.00
46876;BME280;32866;50.160;14.768;2023-02-13T14:13:51;101416.63;;;9.87;100.00
46876;BME280;32866;50.160;14.768;2023-02-13T14:16:46;101412.06;;;10.12;100.00
46876;BME280;32866;50.160;14.768;2023-02-13T14:19:39;101415.41;;;9.77;100.00
46876;BME280;32866;50.160;14.768;2023-02-13T14:22:30;101412.66;;;9.73;100.00
46876;BME280;32866;50.160;14.768;2023-02-13T14:25:05;101383.59;;;9.47;100.00
46876;BME280;32866;50.160;14.768;2023-02-13T14:27:38;101411.03;;;9.65;100.00
46876;BME280;32866;50.160;14.768;2023-02-13T14:30:25;101418.88;;;9.66;100.00
46876;BME280;32866;50.160;14.768;2023-02-13T14:32:51;101415.94;;;9.38;100.00
46876;BME280;32866;50.160;14.768;2023-02-13T14:35:22;101413.41;;;9.70;100.00
46876;BME280;32866;50.160;14.768;2023-02-13T14:37:56;101378.34;;;9.24;100.00
46876;BME280;32866;50.160;14.768;2023-02-13T14:40:47;101416.31;;;9.33;100.00
46876;BME280;32866;50.160;14.768;2023-02-13T14:48:56;101397.84;;;9.15;100.00
46876;BME280;32866;50.160;14.768;2023-02-13T14:51:29;101396.00;;;9.34;100.00
46876;BME280;32866;50.160;14.768;2023-02-13T14:54:03;101362.13;;;8.97;100.00
46876;BME280;32866;50.160;14.768;2023-02-13T14:56:31;101381.72;;;9.06;100.00
46876;BME280;32866;50.160;14.768;2023-02-13T14:59:11;101382.00;;;8.90;100.00
46876;BME280;32866;50.160;14.768;2023-02-13T15:02:03;101383.81;;;8.76;100.00
46876;BME280;32866;50.160;14.768;2023-02-13T15:04:47;101382.91;;;8.61;100.00
46876;BME280;32866;50.160;14.768;2023-02-13T15:07:22;101384.53;;;8.69;100.00
46876;BME280;32866;50.160;14.768;2023-02-13T15:09:59;101386.19;;;8.77;100.00
46876;BME280;32866;50.160;14.768;2023-02-13T15:12:27;101383.25;;;8.56;100.00
46876;BME280;32866;50.160;14.768;2023-02-13T15:14:52;101377.59;;;8.75;100.00
46876;BME280;32866;50.160;14.768;2023-02-13T15:17:19;101374.94;;;8.86;100.00
46876;BME280;32866;50.160;14.768;2023-02-13T15:19:48;101371.56;;;8.59;100.00